createdAt,value
2022-10-07T00:00:51.297Z,3.10
2022-10-07T00:01:51.249Z,3.60
2022-10-07T00:02:51.193Z,4.20
2022-10-07T00:03:51.183Z,3.90
2022-10-07T00:04:51.177Z,3.80
2022-10-07T00:05:51.164Z,3.60
2022-10-07T00:06:51.154Z,3.40
2022-10-07T00:07:51.163Z,3.60
2022-10-07T00:08:51.134Z,3.50
2022-10-07T00:09:51.189Z,3.70
2022-10-07T00:10:51.113Z,3.70
2022-10-07T00:11:51.105Z,3.70
2022-10-07T00:12:51.095Z,3.10
2022-10-07T00:13:51.083Z,3.80
2022-10-07T00:14:51.072Z,4.10
2022-10-07T00:15:51.063Z,3.50
2022-10-07T00:16:51.096Z,3.80
2022-10-07T00:17:51.042Z,3.30
2022-10-07T00:18:51.033Z,3.90
2022-10-07T00:19:51.024Z,3.50
2022-10-07T00:20:51.013Z,3.80
2022-10-07T00:21:51.004Z,3.60
2022-10-07T00:22:50.993Z,3.40
2022-10-07T00:23:51.000Z,4.20
2022-10-07T00:24:50.973Z,3.50
2022-10-07T00:25:50.963Z,4.00
2022-10-07T00:26:50.953Z,3.90
2022-10-07T00:27:50.945Z,3.10
2022-10-07T00:28:50.934Z,3.60
2022-10-07T00:29:50.924Z,3.40
2022-10-07T00:30:51.041Z,4.50
2022-10-07T00:31:56.267Z,3.50
2022-10-07T00:32:50.894Z,3.70
2022-10-07T00:33:50.884Z,3.30
2022-10-07T00:34:50.873Z,3.30
2022-10-07T00:35:50.867Z,3.00
2022-10-07T00:36:50.855Z,3.60
2022-10-07T00:37:50.847Z,3.50
2022-10-07T00:38:50.835Z,3.70
2022-10-07T00:39:50.847Z,4.10
2022-10-07T00:40:50.816Z,3.40
2022-10-07T00:41:50.810Z,3.40
2022-10-07T00:42:50.797Z,3.50
2022-10-07T00:43:50.788Z,4.00
2022-10-07T00:44:50.777Z,3.70
2022-10-07T00:45:50.871Z,3.60
2022-10-07T00:46:50.757Z,3.50
2022-10-07T00:47:50.748Z,3.80
2022-10-07T00:48:50.738Z,3.60
2022-10-07T00:49:50.729Z,3.10
2022-10-07T00:50:50.718Z,3.40
2022-10-07T00:51:50.707Z,3.30
2022-10-07T00:52:50.696Z,3.80
2022-10-07T00:53:50.689Z,3.20
2022-10-07T00:54:50.679Z,3.20
2022-10-07T00:55:50.686Z,2.90
2022-10-07T00:56:50.670Z,3.60
2022-10-07T00:57:50.651Z,4.40
2022-10-07T00:58:50.637Z,4.20
2022-10-07T00:59:50.628Z,3.70
2022-10-07T01:00:50.696Z,3.30
2022-10-07T01:01:50.609Z,3.80
2022-10-07T01:02:50.684Z,3.70
2022-10-07T01:03:50.590Z,2.50
2022-10-07T01:04:50.579Z,2.80
2022-10-07T01:05:50.571Z,3.30
2022-10-07T01:06:50.558Z,3.70
2022-10-07T01:07:50.561Z,3.50
2022-10-07T01:08:50.539Z,4.60
2022-10-07T01:09:50.532Z,2.90
2022-10-07T01:10:50.522Z,3.50
2022-10-07T01:11:50.531Z,3.40
2022-10-07T01:12:50.549Z,3.30
2022-10-07T01:13:50.496Z,3.50
2022-10-07T01:14:50.480Z,3.20
2022-10-07T01:15:50.473Z,3.50
2022-10-07T01:16:50.520Z,3.10
2022-10-07T01:17:50.455Z,3.70
2022-10-07T01:18:50.440Z,3.10
2022-10-07T01:19:50.456Z,3.40
2022-10-07T01:20:50.422Z,3.40
2022-10-07T01:21:50.415Z,3.80
2022-10-07T01:22:50.403Z,4.10
2022-10-07T01:23:50.394Z,4.20
2022-10-07T01:24:50.383Z,3.20
2022-10-07T01:25:50.376Z,3.30
2022-10-07T01:26:50.365Z,3.60
2022-10-07T01:27:50.372Z,4.20
2022-10-07T01:28:50.344Z,3.70
2022-10-07T01:29:50.337Z,4.20
2022-10-07T01:30:50.385Z,3.80
2022-10-07T01:31:50.317Z,3.70
2022-10-07T01:32:50.305Z,3.80
2022-10-07T01:33:50.298Z,3.50
2022-10-07T01:34:50.289Z,3.40
2022-10-07T01:35:50.278Z,3.30
2022-10-07T01:36:50.269Z,3.40
2022-10-07T01:37:50.261Z,3.00
2022-10-07T01:38:50.245Z,3.00
2022-10-07T01:39:50.239Z,3.40
2022-10-07T01:40:50.229Z,3.50
2022-10-07T01:41:50.222Z,3.10
2022-10-07T01:42:50.211Z,3.00
2022-10-07T01:43:50.219Z,3.20
2022-10-07T01:44:50.188Z,3.70
2022-10-07T01:45:50.280Z,3.20
2022-10-07T01:46:50.169Z,3.40
2022-10-07T01:47:50.161Z,3.80
2022-10-07T01:48:50.150Z,3.80
2022-10-07T01:49:50.143Z,3.00
2022-10-07T01:50:50.130Z,2.90
2022-10-07T01:51:50.126Z,3.30
2022-10-07T01:52:50.111Z,3.30
2022-10-07T01:53:50.104Z,3.60
2022-10-07T01:54:50.091Z,3.50
2022-10-07T01:55:50.099Z,4.00
2022-10-07T01:56:50.075Z,3.70
2022-10-07T01:57:50.065Z,3.10
2022-10-07T01:58:50.054Z,3.60
2022-10-07T01:59:50.063Z,4.00
2022-10-07T02:00:50.036Z,3.10
2022-10-07T02:01:50.073Z,3.10
2022-10-07T02:02:50.016Z,3.00
2022-10-07T02:03:50.047Z,3.20
2022-10-07T02:04:49.996Z,3.50
2022-10-07T02:05:49.988Z,3.20
2022-10-07T02:06:49.989Z,3.40
2022-10-07T02:07:49.969Z,3.40
2022-10-07T02:08:49.957Z,2.90
2022-10-07T02:09:49.950Z,3.40
2022-10-07T02:10:49.950Z,3.40
2022-10-07T02:11:49.929Z,3.60
2022-10-07T02:12:50.121Z,3.50
2022-10-07T02:13:49.912Z,3.00
2022-10-07T02:14:49.899Z,3.40
2022-10-07T02:15:49.975Z,3.90
2022-10-07T02:16:49.884Z,3.30
2022-10-07T02:17:49.878Z,2.80
2022-10-07T02:18:49.861Z,2.80
2022-10-07T02:19:49.853Z,4.30
2022-10-07T02:20:49.841Z,3.60
2022-10-07T02:21:49.835Z,3.40
2022-10-07T02:22:49.822Z,3.10
2022-10-07T02:23:49.814Z,3.20
2022-10-07T02:24:49.802Z,3.80
2022-10-07T02:25:49.796Z,3.90
2022-10-07T02:26:49.784Z,3.00
2022-10-07T02:27:49.774Z,3.10
2022-10-07T02:28:49.764Z,3.50
2022-10-07T02:29:49.761Z,3.80
2022-10-07T02:30:49.779Z,3.20
2022-10-07T02:31:49.764Z,3.60
2022-10-07T02:32:49.727Z,3.10
2022-10-07T02:33:49.718Z,3.10
2022-10-07T02:34:49.705Z,2.70
2022-10-07T02:35:49.697Z,3.30
2022-10-07T02:36:49.688Z,3.40
2022-10-07T02:37:49.678Z,2.50
2022-10-07T02:38:49.669Z,3.50
2022-10-07T02:39:49.663Z,3.10
2022-10-07T02:40:49.649Z,3.20
2022-10-07T02:41:49.643Z,3.40
2022-10-07T02:42:49.629Z,2.90
2022-10-07T02:43:49.621Z,3.30
2022-10-07T02:44:49.611Z,3.10
2022-10-07T02:45:49.603Z,3.60
2022-10-07T02:46:49.604Z,3.40
2022-10-07T02:47:49.601Z,3.80
2022-10-07T02:48:49.572Z,3.10
2022-10-07T02:49:49.561Z,2.90
2022-10-07T02:50:49.553Z,3.30
2022-10-07T02:51:49.543Z,2.90
2022-10-07T02:52:49.534Z,3.20
2022-10-07T02:53:49.522Z,3.20
2022-10-07T02:54:49.517Z,3.20
2022-10-07T02:55:49.503Z,2.90
2022-10-07T02:56:49.495Z,3.00
2022-10-07T02:57:49.485Z,3.30
2022-10-07T02:58:49.477Z,3.70
2022-10-07T02:59:49.465Z,4.10
2022-10-07T03:00:49.458Z,3.40
2022-10-07T03:01:49.530Z,3.20
2022-10-07T03:02:49.437Z,3.40
2022-10-07T03:03:49.555Z,3.30
2022-10-07T03:04:49.419Z,3.70
2022-10-07T03:05:49.410Z,3.60
2022-10-07T03:06:49.402Z,3.10
2022-10-07T03:07:49.391Z,3.40
2022-10-07T03:08:49.485Z,2.70
2022-10-07T03:09:49.371Z,3.60
2022-10-07T03:10:49.362Z,2.70
2022-10-07T03:11:49.355Z,2.80
2022-10-07T03:12:49.345Z,3.20
2022-10-07T03:13:49.434Z,3.20
2022-10-07T03:14:49.321Z,3.00
2022-10-07T03:15:49.370Z,3.00
2022-10-07T03:16:49.304Z,3.10
2022-10-07T03:17:49.293Z,2.70
2022-10-07T03:18:49.285Z,3.20
2022-10-07T03:19:49.291Z,3.40
2022-10-07T03:20:49.264Z,3.40
2022-10-07T03:21:49.254Z,2.90
2022-10-07T03:22:49.248Z,2.80
2022-10-07T03:23:49.233Z,3.10
2022-10-07T03:24:49.226Z,3.30
2022-10-07T03:25:49.216Z,3.20
2022-10-07T03:26:49.206Z,3.40
2022-10-07T03:27:49.195Z,3.30
2022-10-07T03:28:49.194Z,3.40
2022-10-07T03:29:49.177Z,3.30
2022-10-07T03:30:49.215Z,3.40
2022-10-07T03:31:49.158Z,2.80
2022-10-07T03:32:49.149Z,3.10
2022-10-07T03:33:49.139Z,3.90
2022-10-07T03:34:49.140Z,3.40
2022-10-07T03:35:49.138Z,3.30
2022-10-07T03:36:49.111Z,3.60
2022-10-07T03:37:49.099Z,3.10
2022-10-07T03:38:49.090Z,3.00
2022-10-07T03:39:49.079Z,3.10
2022-10-07T03:40:49.072Z,3.20
2022-10-07T03:41:49.062Z,3.10
2022-10-07T03:42:49.053Z,3.30
2022-10-07T03:43:49.041Z,3.50
2022-10-07T03:44:49.032Z,2.90
2022-10-07T03:45:49.021Z,3.60
2022-10-07T03:46:49.062Z,3.30
2022-10-07T03:47:49.001Z,3.90
2022-10-07T03:48:48.995Z,3.90
2022-10-07T03:49:48.982Z,3.90
2022-10-07T03:50:48.973Z,3.20
2022-10-07T03:51:48.983Z,3.30
2022-10-07T03:52:48.954Z,3.50
2022-10-07T03:53:48.944Z,3.60
2022-10-07T03:54:48.936Z,3.60
2022-10-07T03:55:48.924Z,3.90
2022-10-07T03:56:48.915Z,3.50
2022-10-07T03:57:48.905Z,3.50
2022-10-07T03:58:48.895Z,3.70
2022-10-07T03:59:48.886Z,3.50
2022-10-07T04:00:48.876Z,3.40
2022-10-07T04:01:48.967Z,3.80
2022-10-07T04:02:48.881Z,3.40
2022-10-07T04:03:49.048Z,3.60
2022-10-07T04:04:48.837Z,3.60
2022-10-07T04:05:48.825Z,3.50
2022-10-07T04:06:48.816Z,4.20
2022-10-07T04:07:48.823Z,4.10
2022-10-07T04:08:48.803Z,3.70
2022-10-07T04:09:48.784Z,3.30
2022-10-07T04:10:48.775Z,3.70
2022-10-07T04:11:48.767Z,3.40
2022-10-07T04:12:48.759Z,3.80
2022-10-07T04:13:48.745Z,3.80
2022-10-07T04:14:48.750Z,4.10
2022-10-07T04:15:48.817Z,3.80
2022-10-07T04:16:48.777Z,3.40
2022-10-07T04:17:49.168Z,3.40
2022-10-07T04:18:48.696Z,3.60
2022-10-07T04:19:48.685Z,3.40
2022-10-07T04:20:48.678Z,3.30
2022-10-07T04:21:48.667Z,3.30
2022-10-07T04:22:48.661Z,3.20
2022-10-07T04:23:48.667Z,3.20
2022-10-07T04:24:48.639Z,3.60
2022-10-07T04:25:48.627Z,3.10
2022-10-07T04:26:48.620Z,3.30
2022-10-07T04:27:51.906Z,3.30
2022-10-07T04:28:48.641Z,3.60
2022-10-07T04:29:48.586Z,3.00
2022-10-07T04:30:48.580Z,3.60
2022-10-07T04:31:48.658Z,3.00
2022-10-07T04:32:48.557Z,3.70
2022-10-07T04:33:48.548Z,3.50
2022-10-07T04:34:48.539Z,3.40
2022-10-07T04:35:48.539Z,3.50
2022-10-07T04:36:48.520Z,3.70
2022-10-07T04:37:48.613Z,3.80
2022-10-07T04:38:48.499Z,3.50
2022-10-07T04:40:00.236Z,3.00
2022-10-07T04:40:48.487Z,3.50
2022-10-07T04:41:48.470Z,3.40
2022-10-07T04:42:48.460Z,3.80
2022-10-07T04:43:48.449Z,3.60
2022-10-07T04:44:48.442Z,3.50
2022-10-07T04:45:48.430Z,3.00
2022-10-07T04:46:48.483Z,3.10
2022-10-07T04:47:48.425Z,3.60
2022-10-07T04:48:48.403Z,3.60
2022-10-07T04:49:48.391Z,3.80
2022-10-07T04:50:48.384Z,4.10
2022-10-07T04:51:48.371Z,3.40
2022-10-07T04:52:48.364Z,3.50
2022-10-07T04:53:49.092Z,3.70
2022-10-07T04:54:48.344Z,3.80
2022-10-07T04:55:48.349Z,3.30
2022-10-07T04:56:48.325Z,3.60
2022-10-07T04:57:48.676Z,3.60
2022-10-07T04:58:48.305Z,3.70
2022-10-07T04:59:48.293Z,3.80
2022-10-07T05:00:48.348Z,4.00
2022-10-07T05:01:48.309Z,3.20
2022-10-07T05:02:48.264Z,3.80
2022-10-07T05:03:48.255Z,3.30
2022-10-07T05:04:48.249Z,3.70
2022-10-07T05:05:48.234Z,4.80
2022-10-07T05:06:48.225Z,3.70
2022-10-07T05:07:48.233Z,3.30
2022-10-07T05:08:48.208Z,5.00
2022-10-07T05:09:48.196Z,3.70
2022-10-07T05:10:48.191Z,3.50
2022-10-07T05:11:48.195Z,4.00
2022-10-07T05:12:51.423Z,3.10
2022-10-07T05:13:48.157Z,3.70
2022-10-07T05:14:48.148Z,3.40
2022-10-07T05:15:48.139Z,3.80
2022-10-07T05:16:48.129Z,3.50
2022-10-07T05:17:48.243Z,3.70
2022-10-07T05:18:48.107Z,3.80
2022-10-07T05:19:48.195Z,3.70
2022-10-07T05:20:48.088Z,3.60
2022-10-07T05:21:48.084Z,3.30
2022-10-07T05:22:48.071Z,3.70
2022-10-07T05:23:48.057Z,3.60
2022-10-07T05:24:48.050Z,3.80
2022-10-07T05:25:48.036Z,4.00
2022-10-07T05:26:48.029Z,3.80
2022-10-07T05:27:48.291Z,3.70
2022-10-07T05:28:48.010Z,3.80
2022-10-07T05:29:47.998Z,3.30
2022-10-07T05:30:47.994Z,4.00
2022-10-07T05:31:48.084Z,3.30
2022-10-07T05:32:47.972Z,3.50
2022-10-07T05:33:47.960Z,3.50
2022-10-07T05:34:47.951Z,3.50
2022-10-07T05:35:47.938Z,4.40
2022-10-07T05:36:47.931Z,4.20
2022-10-07T05:37:51.222Z,3.90
2022-10-07T05:38:47.912Z,3.60
2022-10-07T05:39:47.899Z,4.10
2022-10-07T05:40:47.945Z,4.50
2022-10-07T05:41:47.881Z,3.60
2022-10-07T05:42:47.874Z,4.10
2022-10-07T05:43:47.881Z,4.40
2022-10-07T05:44:47.854Z,3.90
2022-10-07T05:45:47.885Z,3.90
2022-10-07T05:46:47.834Z,3.40
2022-10-07T05:47:48.335Z,4.10
2022-10-07T05:48:47.817Z,4.00
2022-10-07T05:49:47.808Z,3.80
2022-10-07T05:50:47.800Z,3.50
2022-10-07T05:51:47.788Z,4.10
2022-10-07T05:52:47.794Z,3.70
2022-10-07T05:53:47.764Z,3.90
2022-10-07T05:54:47.760Z,4.00
2022-10-07T05:55:47.747Z,3.80
2022-10-07T05:56:47.738Z,3.60
2022-10-07T05:57:48.015Z,3.60
2022-10-07T05:58:47.718Z,4.00
2022-10-07T05:59:47.724Z,3.70
2022-10-07T06:00:47.699Z,3.40
2022-10-07T06:01:47.704Z,3.50
2022-10-07T06:02:47.784Z,3.40
2022-10-07T06:03:47.668Z,3.50
2022-10-07T06:04:47.660Z,4.00
2022-10-07T06:05:47.647Z,3.60
2022-10-07T06:06:47.642Z,3.70
2022-10-07T06:07:48.083Z,3.90
2022-10-07T06:08:47.623Z,3.70
2022-10-07T06:09:47.609Z,3.20
2022-10-07T06:10:47.602Z,4.00
2022-10-07T06:11:47.589Z,4.20
2022-10-07T06:12:47.583Z,3.60
2022-10-07T06:13:47.572Z,3.60
2022-10-07T06:14:47.565Z,3.50
2022-10-07T06:15:47.728Z,4.40
2022-10-07T06:16:47.619Z,4.10
2022-10-07T06:17:48.134Z,4.30
2022-10-07T06:18:47.525Z,3.90
2022-10-07T06:19:47.515Z,4.00
2022-10-07T06:20:47.508Z,4.00
2022-10-07T06:21:47.495Z,4.30
2022-10-07T06:22:47.486Z,4.20
2022-10-07T06:23:47.476Z,4.30
2022-10-07T06:24:47.471Z,5.20
2022-10-07T06:25:47.457Z,4.00
2022-10-07T06:26:47.448Z,3.90
2022-10-07T06:27:53.510Z,3.50
2022-10-07T06:28:47.552Z,4.30
2022-10-07T06:29:47.418Z,3.90
2022-10-07T06:30:47.465Z,3.90
2022-10-07T06:31:47.529Z,3.80
2022-10-07T06:32:47.391Z,3.90
2022-10-07T06:33:47.479Z,3.90
2022-10-07T06:34:47.372Z,4.20
2022-10-07T06:35:47.359Z,4.10
2022-10-07T06:36:47.354Z,4.10
2022-10-07T06:37:48.065Z,4.40
2022-10-07T06:38:47.361Z,4.40
2022-10-07T06:39:47.322Z,3.90
2022-10-07T06:40:47.316Z,4.00
2022-10-07T06:41:47.309Z,3.80
2022-10-07T06:42:47.296Z,4.20
2022-10-07T06:43:47.288Z,4.00
2022-10-07T06:44:47.279Z,4.20
2022-10-07T06:45:47.307Z,4.30
2022-10-07T06:46:47.259Z,3.70
2022-10-07T06:47:48.023Z,3.60
2022-10-07T06:48:47.255Z,4.60
2022-10-07T06:49:47.240Z,4.00
2022-10-07T06:50:47.222Z,4.20
2022-10-07T06:51:47.209Z,4.40
2022-10-07T06:52:47.221Z,4.20
2022-10-07T06:53:47.191Z,4.50
2022-10-07T06:54:47.183Z,4.20
2022-10-07T06:55:47.172Z,4.20
2022-10-07T06:56:47.164Z,4.80
2022-10-07T06:57:47.153Z,4.60
2022-10-07T06:58:47.175Z,4.80
2022-10-07T06:59:47.135Z,4.80
2022-10-07T07:00:47.200Z,4.50
2022-10-07T07:01:47.168Z,4.30
2022-10-07T07:02:47.201Z,4.90
2022-10-07T07:03:47.125Z,4.50
2022-10-07T07:04:47.136Z,5.10
2022-10-07T07:05:48.705Z,4.60
2022-10-07T07:06:47.068Z,4.80
2022-10-07T07:07:47.456Z,4.50
2022-10-07T07:08:47.050Z,5.10
2022-10-07T07:09:47.043Z,5.00
2022-10-07T07:10:47.033Z,4.40
2022-10-07T07:11:47.024Z,4.60
2022-10-07T07:12:47.409Z,4.20
2022-10-07T07:13:47.006Z,4.40
2022-10-07T07:14:46.997Z,4.10
2022-10-07T07:15:46.987Z,4.40
2022-10-07T07:16:47.068Z,3.90
2022-10-07T07:17:47.470Z,4.30
2022-10-07T07:18:46.958Z,4.90
2022-10-07T07:19:46.970Z,4.40
2022-10-07T07:20:46.938Z,4.80
2022-10-07T07:21:49.056Z,5.20
2022-10-07T07:22:46.920Z,5.20
2022-10-07T07:23:46.914Z,4.60
2022-10-07T07:24:46.903Z,4.80
2022-10-07T07:25:46.897Z,4.80
2022-10-07T07:26:46.882Z,5.30
2022-10-07T07:27:47.187Z,5.20
2022-10-07T07:28:47.017Z,5.70
2022-10-07T07:29:46.859Z,4.90
2022-10-07T07:30:46.882Z,5.00
2022-10-07T07:31:46.841Z,4.70
2022-10-07T07:32:46.829Z,5.30
2022-10-07T07:33:46.823Z,5.30
2022-10-07T07:34:46.879Z,5.30
2022-10-07T07:35:47.103Z,4.60
2022-10-07T07:36:46.793Z,4.40
2022-10-07T07:37:47.474Z,5.80
2022-10-07T07:38:46.776Z,6.30
2022-10-07T07:39:46.771Z,6.60
2022-10-07T07:40:46.758Z,6.20
2022-10-07T07:41:46.750Z,6.10
2022-10-07T07:42:46.740Z,5.20
2022-10-07T07:43:46.732Z,6.30
2022-10-07T07:44:46.776Z,6.60
2022-10-07T07:45:46.739Z,6.00
2022-10-07T07:46:46.704Z,6.00
2022-10-07T07:47:47.145Z,6.50
2022-10-07T07:48:46.687Z,6.20
2022-10-07T07:49:46.679Z,7.00
2022-10-07T07:50:46.670Z,6.40
2022-10-07T07:51:46.681Z,6.70
2022-10-07T07:52:46.650Z,6.30
2022-10-07T07:53:46.644Z,5.80
2022-10-07T07:54:46.632Z,6.60
2022-10-07T07:55:46.626Z,6.80
2022-10-07T07:56:46.613Z,6.10
2022-10-07T07:57:47.073Z,7.80
2022-10-07T07:58:46.597Z,7.10
2022-10-07T07:59:46.589Z,7.20
2022-10-07T08:00:46.585Z,7.00
2022-10-07T08:01:46.580Z,6.10
2022-10-07T08:02:46.692Z,7.00
2022-10-07T08:03:46.558Z,7.40
2022-10-07T08:04:46.547Z,8.20
2022-10-07T08:05:46.540Z,8.20
2022-10-07T08:06:46.527Z,6.90
2022-10-07T08:07:46.991Z,8.00
2022-10-07T08:08:46.510Z,7.70
2022-10-07T08:09:46.706Z,8.40
2022-10-07T08:10:51.666Z,8.50
2022-10-07T08:11:46.487Z,7.20
2022-10-07T08:12:46.480Z,8.40
2022-10-07T08:13:46.471Z,8.90
2022-10-07T08:14:46.460Z,9.40
2022-10-07T08:15:46.482Z,9.50
2022-10-07T08:16:46.441Z,8.60
2022-10-07T08:17:46.797Z,8.60
2022-10-07T08:18:46.423Z,8.50
2022-10-07T08:19:46.416Z,9.20
2022-10-07T08:20:46.407Z,9.90
2022-10-07T08:21:46.402Z,10.60
2022-10-07T08:22:46.388Z,12.00
2022-10-07T08:23:46.400Z,10.90
2022-10-07T08:24:46.373Z,10.10
2022-10-07T08:25:46.366Z,9.30
2022-10-07T08:26:46.355Z,10.90
2022-10-07T08:27:46.657Z,9.80
2022-10-07T08:28:46.353Z,9.60
2022-10-07T08:29:46.333Z,10.00
2022-10-07T08:30:46.382Z,11.20
2022-10-07T08:31:46.637Z,10.80
2022-10-07T08:32:46.309Z,11.80
2022-10-07T08:33:46.297Z,10.90
2022-10-07T08:34:46.286Z,11.60
2022-10-07T08:35:46.282Z,10.30
2022-10-07T08:36:46.271Z,9.90
2022-10-07T08:37:46.572Z,10.20
2022-10-07T08:38:46.861Z,9.90
2022-10-07T08:39:46.279Z,9.90
2022-10-07T08:40:46.250Z,10.20
2022-10-07T08:41:46.229Z,10.50
2022-10-07T08:42:46.219Z,9.70
2022-10-07T08:43:46.216Z,10.00
2022-10-07T08:44:46.202Z,9.80
2022-10-07T08:45:46.197Z,9.70
2022-10-07T08:46:46.185Z,9.10
2022-10-07T08:47:46.539Z,10.20
2022-10-07T08:48:46.170Z,10.40
2022-10-07T08:49:46.162Z,9.40
2022-10-07T08:50:46.152Z,10.10
2022-10-07T08:51:46.145Z,10.10
2022-10-07T08:52:46.135Z,9.00
2022-10-07T08:53:46.128Z,9.10
2022-10-07T08:54:46.117Z,10.30
2022-10-07T08:55:46.130Z,9.50
2022-10-07T08:57:46.517Z,8.70
2022-10-07T08:58:46.088Z,8.60
2022-10-07T08:59:46.077Z,9.30
2022-10-07T09:00:46.070Z,8.30
2022-10-07T09:01:46.079Z,8.80
2022-10-07T09:02:46.116Z,9.40
2022-10-07T09:03:46.043Z,8.80
2022-10-07T09:04:46.041Z,7.90
2022-10-07T09:05:46.029Z,8.80
2022-10-07T09:06:46.022Z,8.00
2022-10-07T09:07:46.412Z,8.20
2022-10-07T09:08:46.013Z,9.10
2022-10-07T09:09:45.997Z,8.30
2022-10-07T09:10:45.994Z,9.90
2022-10-07T09:11:46.002Z,8.90
2022-10-07T09:12:45.974Z,8.60
2022-10-07T09:13:45.964Z,8.70
2022-10-07T09:14:45.957Z,9.30
2022-10-07T09:15:45.989Z,10.20
2022-10-07T09:16:45.942Z,8.30
2022-10-07T09:17:46.283Z,9.70
2022-10-07T09:18:45.926Z,9.20
2022-10-07T09:19:45.915Z,8.70
2022-10-07T09:20:45.909Z,9.30
2022-10-07T09:21:45.901Z,9.50
2022-10-07T09:22:45.894Z,9.80
2022-10-07T09:23:45.883Z,9.50
2022-10-07T09:24:45.885Z,9.30
2022-10-07T09:25:45.869Z,9.30
2022-10-07T09:26:45.863Z,9.10
2022-10-07T09:27:46.107Z,9.40
2022-10-07T09:28:45.894Z,9.30
2022-10-07T09:29:45.840Z,8.40
2022-10-07T09:30:45.847Z,8.80
2022-10-07T09:31:45.822Z,8.10
2022-10-07T09:32:45.818Z,8.50
2022-10-07T09:33:45.816Z,9.00
2022-10-07T09:34:45.804Z,9.20
2022-10-07T09:35:45.794Z,8.90
2022-10-07T09:36:45.787Z,8.90
2022-10-07T09:37:46.136Z,8.50
2022-10-07T09:38:45.770Z,9.50
2022-10-07T09:39:45.762Z,8.70
2022-10-07T09:40:45.761Z,9.60
2022-10-07T09:41:45.750Z,10.00
2022-10-07T09:42:45.745Z,9.30
2022-10-07T09:43:45.758Z,9.20
2022-10-07T09:44:45.731Z,9.30
2022-10-07T09:45:45.824Z,9.20
2022-10-07T09:46:45.770Z,8.40
2022-10-07T09:47:45.989Z,9.40
2022-10-07T09:48:45.701Z,9.30
2022-10-07T09:49:45.691Z,9.20
2022-10-07T09:50:45.687Z,8.70
2022-10-07T09:51:45.678Z,8.90
2022-10-07T09:52:45.672Z,8.90
2022-10-07T09:53:45.664Z,8.40
2022-10-07T09:54:45.661Z,8.50
2022-10-07T09:55:45.650Z,8.90
2022-10-07T09:56:45.645Z,8.30
2022-10-07T09:57:45.879Z,9.10
2022-10-07T09:59:45.649Z,7.80
2022-10-07T10:00:45.616Z,8.70
2022-10-07T10:01:45.644Z,8.00
2022-10-07T10:02:45.823Z,8.10
2022-10-07T10:03:45.722Z,8.20
2022-10-07T10:04:45.590Z,8.50
2022-10-07T10:05:45.585Z,7.90
2022-10-07T10:06:45.576Z,9.10
2022-10-07T10:07:45.878Z,8.50
2022-10-07T10:08:45.564Z,8.00
2022-10-07T10:09:45.559Z,7.80
2022-10-07T10:10:45.559Z,8.90
2022-10-07T10:11:45.546Z,7.50
2022-10-07T10:12:45.826Z,8.20
2022-10-07T10:13:45.534Z,8.60
2022-10-07T10:14:45.525Z,8.30
2022-10-07T10:15:45.607Z,8.70
2022-10-07T10:16:45.512Z,8.70
2022-10-07T10:17:45.508Z,9.00
2022-10-07T10:18:45.499Z,7.80
2022-10-07T10:20:45.489Z,8.60
2022-10-07T10:21:45.480Z,7.20
2022-10-07T10:22:45.801Z,8.00
2022-10-07T10:23:45.467Z,6.20
2022-10-07T10:24:45.463Z,7.20
2022-10-07T10:25:45.456Z,7.80
2022-10-07T10:26:45.451Z,6.90
2022-10-07T10:27:45.442Z,7.40
2022-10-07T10:28:45.455Z,7.30
2022-10-07T10:29:45.429Z,6.70
2022-10-07T10:30:45.429Z,7.60
2022-10-07T10:31:45.447Z,8.00
2022-10-07T10:32:45.699Z,6.60
2022-10-07T10:33:45.406Z,7.30
2022-10-07T10:35:45.399Z,6.60
2022-10-07T10:36:45.388Z,6.60
2022-10-07T10:37:45.387Z,6.50
2022-10-07T10:38:45.374Z,6.90
2022-10-07T10:39:45.371Z,7.00
2022-10-07T10:40:45.463Z,7.50
2022-10-07T10:41:45.359Z,6.50
2022-10-07T10:42:45.634Z,6.40
2022-10-07T10:43:45.347Z,7.00
2022-10-07T10:44:45.339Z,6.80
2022-10-07T10:45:45.336Z,6.10
2022-10-07T10:46:49.657Z,7.00
2022-10-07T10:47:45.354Z,6.00
2022-10-07T10:48:45.314Z,6.70
2022-10-07T10:49:45.314Z,6.60
2022-10-07T10:50:45.305Z,6.70
2022-10-07T10:51:45.300Z,7.00
2022-10-07T10:52:45.679Z,6.90
2022-10-07T10:53:45.291Z,7.00
2022-10-07T10:54:45.282Z,6.10
2022-10-07T10:55:45.277Z,6.00
2022-10-07T10:56:45.270Z,6.70
2022-10-07T10:57:45.269Z,6.50
2022-10-07T10:58:45.259Z,7.00
2022-10-07T10:59:45.254Z,6.90
2022-10-07T11:00:45.247Z,6.30
2022-10-07T11:01:45.293Z,5.70
2022-10-07T11:02:45.629Z,7.30
2022-10-07T11:03:45.267Z,6.00
2022-10-07T11:04:45.224Z,5.70
2022-10-07T11:05:45.224Z,5.20
2022-10-07T11:06:45.217Z,5.90
2022-10-07T11:07:45.208Z,6.70
2022-10-07T11:08:45.202Z,6.20
2022-10-07T11:09:45.198Z,6.20
2022-10-07T11:10:45.190Z,6.30
2022-10-07T11:11:45.186Z,6.30
2022-10-07T11:12:45.405Z,6.40
2022-10-07T11:13:45.178Z,6.40
2022-10-07T11:14:45.186Z,6.00
2022-10-07T11:15:45.188Z,6.40
2022-10-07T11:16:45.158Z,6.90
2022-10-07T11:17:45.155Z,6.80
2022-10-07T11:18:45.146Z,5.60
2022-10-07T11:19:45.162Z,5.80
2022-10-07T11:20:45.138Z,5.50
2022-10-07T11:21:45.132Z,6.40
2022-10-07T11:22:45.401Z,5.70
2022-10-07T11:23:45.121Z,5.70
2022-10-07T11:24:45.115Z,6.70
2022-10-07T11:25:45.109Z,5.90
2022-10-07T11:26:45.105Z,6.80
2022-10-07T11:27:45.097Z,5.60
2022-10-07T11:28:45.153Z,5.50
2022-10-07T11:29:45.106Z,5.50
2022-10-07T11:30:45.082Z,5.80
2022-10-07T11:31:45.126Z,4.80
2022-10-07T11:32:45.417Z,5.50
2022-10-07T11:33:45.063Z,5.40
2022-10-07T11:34:45.061Z,5.50
2022-10-07T11:35:45.069Z,5.90
2022-10-07T11:36:45.049Z,6.90
2022-10-07T11:37:45.044Z,6.80
2022-10-07T11:38:45.037Z,6.40
2022-10-07T11:39:45.028Z,5.90
2022-10-07T11:40:45.042Z,7.30
2022-10-07T11:41:45.018Z,7.80
2022-10-07T11:42:45.303Z,6.90
2022-10-07T11:43:45.008Z,6.50
2022-10-07T11:44:45.005Z,6.60
2022-10-07T11:45:44.998Z,6.90
2022-10-07T11:46:45.089Z,6.30
2022-10-07T11:47:44.987Z,7.30
2022-10-07T11:48:44.982Z,7.00
2022-10-07T11:49:44.978Z,6.80
2022-10-07T11:50:44.974Z,6.90
2022-10-07T11:51:44.983Z,6.80
2022-10-07T11:52:45.382Z,6.80
2022-10-07T11:53:44.957Z,6.00
2022-10-07T11:54:44.951Z,6.00
2022-10-07T11:55:44.946Z,7.00
2022-10-07T11:56:44.942Z,6.40
2022-10-07T11:57:44.936Z,6.10
2022-10-07T11:58:44.935Z,5.80
2022-10-07T11:59:44.926Z,6.40
2022-10-07T12:00:44.924Z,6.30
2022-10-07T12:01:45.005Z,6.00
2022-10-07T12:02:45.429Z,6.50
2022-10-07T12:03:44.907Z,5.30
2022-10-07T12:04:44.910Z,6.00
2022-10-07T12:05:44.897Z,6.30
2022-10-07T12:06:44.895Z,5.80
2022-10-07T12:07:44.904Z,5.60
2022-10-07T12:08:44.885Z,6.10
2022-10-07T12:09:44.879Z,6.00
2022-10-07T12:10:44.883Z,6.30
2022-10-07T12:11:44.869Z,6.00
2022-10-07T12:12:45.365Z,5.60
2022-10-07T12:13:44.861Z,5.10
2022-10-07T12:14:44.862Z,5.70
2022-10-07T12:15:44.857Z,5.60
2022-10-07T12:16:44.867Z,5.70
2022-10-07T12:17:44.844Z,5.60
2022-10-07T12:18:44.840Z,5.20
2022-10-07T12:19:44.834Z,5.80
2022-10-07T12:20:44.841Z,6.20
2022-10-07T12:21:44.827Z,6.10
2022-10-07T12:22:45.101Z,6.00
2022-10-07T12:23:44.836Z,5.70
2022-10-07T12:24:44.814Z,5.50
2022-10-07T12:25:44.811Z,5.50
2022-10-07T12:26:44.806Z,6.00
2022-10-07T12:27:44.800Z,5.70
2022-10-07T12:28:44.917Z,6.20
2022-10-07T12:29:44.790Z,6.70
2022-10-07T12:30:44.789Z,6.70
2022-10-07T12:31:44.820Z,5.80
2022-10-07T12:32:45.081Z,6.10
2022-10-07T12:33:44.776Z,6.20
2022-10-07T12:34:44.774Z,5.70
2022-10-07T12:35:45.582Z,6.60
2022-10-07T12:36:44.763Z,6.30
2022-10-07T12:37:44.758Z,5.50
2022-10-07T12:38:45.078Z,5.40
2022-10-07T12:39:44.766Z,5.30
2022-10-07T12:40:44.747Z,5.80
2022-10-07T12:41:44.740Z,5.60
2022-10-07T12:42:45.014Z,5.20
2022-10-07T12:43:44.785Z,4.90
2022-10-07T12:44:44.729Z,5.30
2022-10-07T12:45:44.758Z,5.60
2022-10-07T12:46:44.722Z,5.00
2022-10-07T12:47:44.714Z,5.30
2022-10-07T12:48:44.713Z,5.40
2022-10-07T12:49:44.706Z,5.30
2022-10-07T12:50:44.805Z,4.80
2022-10-07T12:51:44.699Z,4.70
2022-10-07T12:52:45.045Z,4.90
2022-10-07T12:53:44.690Z,4.70
2022-10-07T12:54:44.687Z,4.40
2022-10-07T12:55:44.701Z,4.40
2022-10-07T12:56:44.708Z,4.80
2022-10-07T12:57:44.677Z,4.90
2022-10-07T12:58:44.670Z,5.80
2022-10-07T12:59:44.664Z,5.00
2022-10-07T13:00:44.805Z,4.00
2022-10-07T13:01:44.847Z,5.00
2022-10-07T13:02:45.015Z,5.00
2022-10-07T13:03:44.648Z,5.20
2022-10-07T13:04:44.648Z,5.10
2022-10-07T13:05:44.640Z,5.30
2022-10-07T13:06:44.642Z,5.00
2022-10-07T13:07:44.632Z,4.10
2022-10-07T13:08:44.632Z,5.00
2022-10-07T13:09:44.624Z,4.90
2022-10-07T13:10:44.621Z,4.90
2022-10-07T13:11:47.864Z,4.70
2022-10-07T13:12:44.906Z,4.70
2022-10-07T13:13:44.609Z,4.40
2022-10-07T13:14:44.606Z,4.50
2022-10-07T13:15:44.600Z,4.90
2022-10-07T13:16:44.647Z,5.40
2022-10-07T13:17:44.593Z,5.00
2022-10-07T13:18:44.589Z,4.60
2022-10-07T13:19:44.584Z,4.70
2022-10-07T13:20:44.580Z,4.10
2022-10-07T13:21:44.576Z,5.00